sensor_id;sensor_type;location;lat;lon;timestamp;pressure;altitude;pressure_sealevel;temperature;humidity
77161;BME280;66135;0.000;0.000;2023-03-14T00:01:45;98856.25;;;18.85;59.01
77161;BME280;66135;0.000;0.000;2023-03-14T00:04:11;98854.59;;;18.84;58.99
77161;BME280;66135;0.000;0.000;2023-03-14T00:06:36;98854.00;;;18.82;58.88
77161;BME280;66135;0.000;0.000;2023-03-14T00:09:02;98852.34;;;18.81;58.95
77161;BME280;66135;0.000;0.000;2023-03-14T00:11:28;98843.38;;;18.80;58.92
77161;BME280;66135;0.000;0.000;2023-03-14T00:14:02;98849.63;;;18.81;58.95
77161;BME280;66135;0.000;0.000;2023-03-14T00:16:28;98844.41;;;18.79;58.91
77161;BME280;66135;0.000;0.000;2023-03-14T00:18:53;98865.53;;;18.77;58.87
77161;BME280;66135;0.000;0.000;2023-03-14T00:21:19;98863.88;;;18.76;58.80
77161;BME280;66135;0.000;0.000;2023-03-14T00:23:44;98867.66;;;18.75;58.87
77161;BME280;66135;0.000;0.000;2023-03-14T00:26:16;98857.03;;;18.74;59.00
77161;BME280;66135;0.000;0.000;2023-03-14T00:28:42;98865.97;;;18.74;59.17
77161;BME280;66135;0.000;0.000;2023-03-14T00:31:16;98880.00;;;18.71;59.00
77161;BME280;66135;0.000;0.000;2023-03-14T00:33:44;98878.13;;;18.72;58.85
77161;BME280;66135;0.000;0.000;2023-03-14T00:36:12;98873.72;;;18.71;58.90
77161;BME280;66135;0.000;0.000;2023-03-14T00:38:39;98879.38;;;18.69;58.71
77161;BME280;66135;0.000;0.000;2023-03-14T00:41:06;98876.91;;;18.68;59.05
77161;BME280;66135;0.000;0.000;2023-03-14T00:43:32;98884.19;;;18.67;58.78
77161;BME280;66135;0.000;0.000;2023-03-14T00:45:57;98882.31;;;18.68;58.99
77161;BME280;66135;0.000;0.000;2023-03-14T00:48:23;98880.69;;;18.67;58.81
77161;BME280;66135;0.000;0.000;2023-03-14T00:50:48;98882.78;;;18.65;58.62
77161;BME280;66135;0.000;0.000;2023-03-14T00:53:15;98880.06;;;18.65;58.75
77161;BME280;66135;0.000;0.000;2023-03-14T00:55:42;98884.03;;;18.62;58.96
77161;BME280;66135;0.000;0.000;2023-03-14T00:58:08;98892.19;;;18.62;58.92
77161;BME280;66135;0.000;0.000;2023-03-14T01:00:33;98882.41;;;18.61;58.62
77161;BME280;66135;0.000;0.000;2023-03-14T01:03:27;98890.78;;;18.60;58.78
77161;BME280;66135;0.000;0.000;2023-03-14T01:05:52;98891.81;;;18.59;58.94
77161;BME280;66135;0.000;0.000;2023-03-14T01:08:18;98895.34;;;18.59;58.65
77161;BME280;66135;0.000;0.000;2023-03-14T01:10:43;98893.09;;;18.56;58.98
77161;BME280;66135;0.000;0.000;2023-03-14T01:13:09;98891.44;;;18.55;58.82
77161;BME280;66135;0.000;0.000;2023-03-14T01:15:35;98894.13;;;18.55;58.84
77161;BME280;66135;0.000;0.000;2023-03-14T01:18:01;98890.81;;;18.53;58.81
77161;BME280;66135;0.000;0.000;2023-03-14T01:20:27;98889.16;;;18.52;58.95
77161;BME280;66135;0.000;0.000;2023-03-14T01:22:52;98889.41;;;18.51;58.99
77161;BME280;66135;0.000;0.000;2023-03-14T01:25:18;98881.50;;;18.49;58.85
77161;BME280;66135;0.000;0.000;2023-03-14T01:27:44;98870.03;;;18.47;58.70
77161;BME280;66135;0.000;0.000;2023-03-14T01:30:10;98858.34;;;18.47;58.94
77161;BME280;66135;0.000;0.000;2023-03-14T01:32:38;98853.16;;;18.45;59.00
77161;BME280;66135;0.000;0.000;2023-03-14T01:35:03;98857.53;;;18.46;58.95
77161;BME280;66135;0.000;0.000;2023-03-14T01:37:29;98855.88;;;18.45;58.86
77161;BME280;66135;0.000;0.000;2023-03-14T01:39:55;98839.59;;;18.45;58.90
77161;BME280;66135;0.000;0.000;2023-03-14T01:42:20;98844.41;;;18.43;58.90
77161;BME280;66135;0.000;0.000;2023-03-14T01:47:15;98843.81;;;18.41;58.82
77161;BME280;66135;0.000;0.000;2023-03-14T01:49:41;98836.50;;;18.42;58.98
77161;BME280;66135;0.000;0.000;2023-03-14T01:52:39;98831.31;;;18.40;58.79
77161;BME280;66135;0.000;0.000;2023-03-14T01:55:09;98825.91;;;18.40;58.80
77161;BME280;66135;0.000;0.000;2023-03-14T01:57:40;98824.22;;;18.39;58.90
77161;BME280;66135;0.000;0.000;2023-03-14T02:00:14;98831.75;;;18.37;58.73
77161;BME280;66135;0.000;0.000;2023-03-14T02:02:41;98826.75;;;18.41;58.60
77161;BME280;66135;0.000;0.000;2023-03-14T02:05:09;98836.94;;;18.39;58.93
77161;BME280;66135;0.000;0.000;2023-03-14T02:07:41;98826.56;;;18.36;58.72
77161;BME280;66135;0.000;0.000;2023-03-14T02:10:10;98823.63;;;18.37;58.87
77161;BME280;66135;0.000;0.000;2023-03-14T02:12:36;98822.78;;;18.37;58.77
77161;BME280;66135;0.000;0.000;2023-03-14T02:15:01;98818.63;;;18.34;58.77
77161;BME280;66135;0.000;0.000;2023-03-14T02:17:27;98822.41;;;18.33;58.95
77161;BME280;66135;0.000;0.000;2023-03-14T02:22:50;98819.09;;;18.31;58.94
77161;BME280;66135;0.000;0.000;2023-03-14T02:27:52;98821.19;;;18.29;58.96
77161;BME280;66135;0.000;0.000;2023-03-14T02:30:20;98815.53;;;18.31;58.88
77161;BME280;66135;0.000;0.000;2023-03-14T02:32:48;98819.09;;;18.31;58.54
77161;BME280;66135;0.000;0.000;2023-03-14T02:35:26;98816.81;;;18.28;59.00
77161;BME280;66135;0.000;0.000;2023-03-14T02:38:35;98818.47;;;18.29;58.74
77161;BME280;66135;0.000;0.000;2023-03-14T02:41:03;98812.00;;;18.30;58.79
77161;BME280;66135;0.000;0.000;2023-03-14T02:43:28;98808.47;;;18.30;58.85
77161;BME280;66135;0.000;0.000;2023-03-14T02:45:54;98797.84;;;18.28;58.58
77161;BME280;66135;0.000;0.000;2023-03-14T02:48:25;98785.34;;;18.27;58.71
77161;BME280;66135;0.000;0.000;2023-03-14T02:50:54;98783.25;;;18.29;58.68
77161;BME280;66135;0.000;0.000;2023-03-14T02:53:24;98787.84;;;18.29;58.66
77161;BME280;66135;0.000;0.000;2023-03-14T02:55:50;98785.94;;;18.29;58.63
77161;BME280;66135;0.000;0.000;2023-03-14T02:58:17;98788.66;;;18.29;58.75
77161;BME280;66135;0.000;0.000;2023-03-14T03:00:42;98792.22;;;18.30;58.73
77161;BME280;66135;0.000;0.000;2023-03-14T03:03:08;98790.19;;;18.25;58.86
77161;BME280;66135;0.000;0.000;2023-03-14T03:05:43;98804.16;;;18.22;58.98
77161;BME280;66135;0.000;0.000;2023-03-14T03:08:09;98810.88;;;18.20;58.82
77161;BME280;66135;0.000;0.000;2023-03-14T03:10:34;98806.25;;;18.20;58.71
77161;BME280;66135;0.000;0.000;2023-03-14T03:13:00;98808.97;;;18.20;58.79
77161;BME280;66135;0.000;0.000;2023-03-14T03:15:26;98813.34;;;18.21;58.65
77161;BME280;66135;0.000;0.000;2023-03-14T03:17:51;98808.97;;;18.20;58.73
77161;BME280;66135;0.000;0.000;2023-03-14T03:20:17;98804.00;;;18.17;58.62
77161;BME280;66135;0.000;0.000;2023-03-14T03:22:42;98803.41;;;18.15;58.89
77161;BME280;66135;0.000;0.000;2023-03-14T03:25:09;98794.47;;;18.15;58.96
77161;BME280;66135;0.000;0.000;2023-03-14T03:27:35;98799.03;;;18.14;58.79
77161;BME280;66135;0.000;0.000;2023-03-14T03:30:02;98801.75;;;18.14;59.04
77161;BME280;66135;0.000;0.000;2023-03-14T03:32:27;98797.41;;;18.13;58.74
77161;BME280;66135;0.000;0.000;2023-03-14T03:34:52;98805.53;;;18.13;58.85
77161;BME280;66135;0.000;0.000;2023-03-14T03:37:18;98795.72;;;18.12;58.97
77161;BME280;66135;0.000;0.000;2023-03-14T03:39:44;98802.44;;;18.10;58.88
77161;BME280;66135;0.000;0.000;2023-03-14T03:42:09;98793.47;;;18.09;59.09
77161;BME280;66135;0.000;0.000;2023-03-14T03:44:35;98784.50;;;18.09;59.21
77161;BME280;66135;0.000;0.000;2023-03-14T03:47:00;98787.44;;;18.07;59.05
77161;BME280;66135;0.000;0.000;2023-03-14T03:49:30;98781.19;;;18.07;58.94
77161;BME280;66135;0.000;0.000;2023-03-14T03:51:56;98780.38;;;18.06;58.93
77161;BME280;66135;0.000;0.000;2023-03-14T03:54:22;98782.25;;;18.06;59.03
77161;BME280;66135;0.000;0.000;2023-03-14T03:56:47;98780.38;;;18.06;59.17
77161;BME280;66135;0.000;0.000;2023-03-14T03:59:12;98777.88;;;18.05;58.81
77161;BME280;66135;0.000;0.000;2023-03-14T04:01:38;98777.28;;;18.03;58.86
77161;BME280;66135;0.000;0.000;2023-03-14T04:04:03;98779.31;;;18.07;58.74
77161;BME280;66135;0.000;0.000;2023-03-14T04:06:29;98787.06;;;18.04;58.87
77161;BME280;66135;0.000;0.000;2023-03-14T04:08:55;98783.28;;;18.05;58.85
77161;BME280;66135;0.000;0.000;2023-03-14T04:11:20;98780.81;;;18.03;58.87
77161;BME280;66135;0.000;0.000;2023-03-14T04:13:45;98779.16;;;18.02;59.10
77161;BME280;66135;0.000;0.000;2023-03-14T04:16:19;98782.34;;;17.99;59.04
77161;BME280;66135;0.000;0.000;2023-03-14T04:18:44;98788.56;;;17.99;58.84
77161;BME280;66135;0.000;0.000;2023-03-14T04:21:10;98777.50;;;18.01;58.92
77161;BME280;66135;0.000;0.000;2023-03-14T04:23:35;98782.91;;;18.01;58.92
77161;BME280;66135;0.000;0.000;2023-03-14T04:26:01;98781.03;;;18.02;59.01
77161;BME280;66135;0.000;0.000;2023-03-14T04:28:27;98778.09;;;18.03;58.64
77161;BME280;66135;0.000;0.000;2023-03-14T04:30:52;98771.03;;;18.02;58.62
77161;BME280;66135;0.000;0.000;2023-03-14T04:33:17;98762.53;;;17.98;59.07
77161;BME280;66135;0.000;0.000;2023-03-14T04:35:44;98762.91;;;18.02;58.87
77161;BME280;66135;0.000;0.000;2023-03-14T04:38:10;98762.91;;;18.02;58.77
77161;BME280;66135;0.000;0.000;2023-03-14T04:40:39;98757.56;;;17.95;58.86
77161;BME280;66135;0.000;0.000;2023-03-14T04:43:06;98759.66;;;17.93;58.98
77161;BME280;66135;0.000;0.000;2023-03-14T04:45:31;98764.63;;;17.96;59.03
77161;BME280;66135;0.000;0.000;2023-03-14T04:47:57;98760.06;;;17.97;58.74
77161;BME280;66135;0.000;0.000;2023-03-14T04:50:22;98760.47;;;17.94;58.95
77161;BME280;66135;0.000;0.000;2023-03-14T04:52:48;98757.19;;;17.92;58.92
77161;BME280;66135;0.000;0.000;2023-03-14T04:55:13;98765.50;;;17.90;58.90
77161;BME280;66135;0.000;0.000;2023-03-14T04:57:39;98761.75;;;17.91;59.11
77161;BME280;66135;0.000;0.000;2023-03-14T05:00:05;98762.38;;;17.93;58.89
77161;BME280;66135;0.000;0.000;2023-03-14T05:02:31;98763.41;;;17.92;58.98
77161;BME280;66135;0.000;0.000;2023-03-14T05:04:57;98759.06;;;17.91;58.96
77161;BME280;66135;0.000;0.000;2023-03-14T05:07:22;98757.19;;;17.92;58.97
77161;BME280;66135;0.000;0.000;2023-03-14T05:09:48;98764.25;;;17.93;58.78
77161;BME280;66135;0.000;0.000;2023-03-14T05:12:13;98756.13;;;17.93;58.83
77161;BME280;66135;0.000;0.000;2023-03-14T05:14:39;98757.19;;;17.92;58.96
77161;BME280;66135;0.000;0.000;2023-03-14T05:17:04;98758.81;;;17.93;58.88
77161;BME280;66135;0.000;0.000;2023-03-14T05:19:30;98746.72;;;17.95;58.95
77161;BME280;66135;0.000;0.000;2023-03-14T05:21:56;98746.94;;;17.94;58.72
77161;BME280;66135;0.000;0.000;2023-03-14T05:24:22;98748.00;;;17.93;58.76
77161;BME280;66135;0.000;0.000;2023-03-14T05:26:47;98740.25;;;17.96;59.24
77161;BME280;66135;0.000;0.000;2023-03-14T05:29:12;98739.41;;;17.96;59.18
77161;BME280;66135;0.000;0.000;2023-03-14T05:31:38;98745.06;;;17.94;59.22
77161;BME280;66135;0.000;0.000;2023-03-14T05:34:03;98738.00;;;17.93;59.30
77161;BME280;66135;0.000;0.000;2023-03-14T05:36:29;98738.00;;;17.93;59.52
77161;BME280;66135;0.000;0.000;2023-03-14T05:38:54;98745.28;;;17.93;59.21
77161;BME280;66135;0.000;0.000;2023-03-14T05:41:19;98741.75;;;17.92;59.59
77161;BME280;66135;0.000;0.000;2023-03-14T05:43:45;98732.81;;;17.92;59.54
77161;BME280;66135;0.000;0.000;2023-03-14T05:46:10;98740.31;;;17.90;59.49
77161;BME280;66135;0.000;0.000;2023-03-14T05:48:35;98727.81;;;17.89;59.70
77161;BME280;66135;0.000;0.000;2023-03-14T05:51:01;98727.81;;;17.89;59.63
77161;BME280;66135;0.000;0.000;2023-03-14T05:53:27;98728.03;;;17.87;59.54
77161;BME280;66135;0.000;0.000;2023-03-14T05:55:55;98729.72;;;17.88;59.71
77161;BME280;66135;0.000;0.000;2023-03-14T05:58:20;98728.66;;;17.89;59.83
77161;BME280;66135;0.000;0.000;2023-03-14T06:00:47;98729.09;;;17.86;59.45
77161;BME280;66135;0.000;0.000;2023-03-14T06:03:13;98717.22;;;17.87;59.55
77161;BME280;66135;0.000;0.000;2023-03-14T06:05:38;98718.28;;;17.86;59.49
77161;BME280;66135;0.000;0.000;2023-03-14T06:08:04;98723.69;;;17.86;59.89
77161;BME280;66135;0.000;0.000;2023-03-14T06:10:29;98716.81;;;17.84;59.66
77161;BME280;66135;0.000;0.000;2023-03-14T06:12:55;98724.72;;;17.85;59.43
77161;BME280;66135;0.000;0.000;2023-03-14T06:15:20;98720.38;;;17.84;59.64
77161;BME280;66135;0.000;0.000;2023-03-14T06:17:45;98729.56;;;17.83;59.64
77161;BME280;66135;0.000;0.000;2023-03-14T06:20:11;98726.03;;;17.83;59.28
77161;BME280;66135;0.000;0.000;2023-03-14T06:22:37;98718.94;;;17.82;59.48
77161;BME280;66135;0.000;0.000;2023-03-14T06:25:04;98721.63;;;17.82;59.78
77161;BME280;66135;0.000;0.000;2023-03-14T06:27:29;98731.44;;;17.83;59.66
77161;BME280;66135;0.000;0.000;2023-03-14T06:29:55;98727.28;;;17.80;59.58
77161;BME280;66135;0.000;0.000;2023-03-14T06:32:21;98723.78;;;17.80;59.67
77161;BME280;66135;0.000;0.000;2023-03-14T06:34:46;98728.34;;;17.79;59.34
77161;BME280;66135;0.000;0.000;2023-03-14T06:37:12;98725.63;;;17.79;59.70
77161;BME280;66135;0.000;0.000;2023-03-14T06:39:37;98733.16;;;17.77;59.72
77161;BME280;66135;0.000;0.000;2023-03-14T06:42:04;98734.00;;;17.78;59.44
77161;BME280;66135;0.000;0.000;2023-03-14T06:44:30;98731.28;;;17.78;59.70
77161;BME280;66135;0.000;0.000;2023-03-14T06:46:55;98736.69;;;17.78;59.62
77161;BME280;66135;0.000;0.000;2023-03-14T06:49:21;98738.78;;;17.76;59.65
77161;BME280;66135;0.000;0.000;2023-03-14T06:51:46;98742.53;;;17.75;59.74
77161;BME280;66135;0.000;0.000;2023-03-14T06:54:20;98741.97;;;17.73;59.74
77161;BME280;66135;0.000;0.000;2023-03-14T06:56:46;98735.25;;;17.75;59.93
77161;BME280;66135;0.000;0.000;2023-03-14T06:59:11;98744.00;;;17.77;60.69
77161;BME280;66135;0.000;0.000;2023-03-14T07:01:37;98743.75;;;17.79;60.10
77161;BME280;66135;0.000;0.000;2023-03-14T07:04:03;98748.13;;;17.80;59.94
77161;BME280;66135;0.000;0.000;2023-03-14T07:06:28;98748.34;;;17.78;60.43
77161;BME280;66135;0.000;0.000;2023-03-14T07:08:57;98767.28;;;17.78;60.70
77161;BME280;66135;0.000;0.000;2023-03-14T07:11:23;98758.97;;;17.80;60.50
77161;BME280;66135;0.000;0.000;2023-03-14T07:13:48;98774.38;;;17.79;60.50
77161;BME280;66135;0.000;0.000;2023-03-14T07:16:14;98766.25;;;17.79;60.90
77161;BME280;66135;0.000;0.000;2023-03-14T07:18:39;98766.72;;;17.76;61.05
77161;BME280;66135;0.000;0.000;2023-03-14T07:21:08;98770.84;;;17.79;60.42
77161;BME280;66135;0.000;0.000;2023-03-14T07:23:34;98776.25;;;17.79;60.79
77161;BME280;66135;0.000;0.000;2023-03-14T07:26:00;98784.38;;;17.79;60.99
77161;BME280;66135;0.000;0.000;2023-03-14T07:28:25;98782.06;;;17.82;61.35
77161;BME280;66135;0.000;0.000;2023-03-14T07:30:52;98786.63;;;17.82;61.31
77161;BME280;66135;0.000;0.000;2023-03-14T07:33:18;98793.94;;;17.81;61.49
77161;BME280;66135;0.000;0.000;2023-03-14T07:35:43;98803.13;;;17.80;61.64
77161;BME280;66135;0.000;0.000;2023-03-14T07:38:09;98808.53;;;17.80;61.63
77161;BME280;66135;0.000;0.000;2023-03-14T07:40:34;98839.16;;;17.81;61.34
77161;BME280;66135;0.000;0.000;2023-03-14T07:43:00;98856.47;;;17.80;61.49
77161;BME280;66135;0.000;0.000;2023-03-14T07:45:25;98897.91;;;17.80;61.54
77161;BME280;66135;0.000;0.000;2023-03-14T07:47:51;98912.72;;;17.78;61.67
77161;BME280;66135;0.000;0.000;2023-03-14T07:50:16;98921.09;;;17.76;61.57
77161;BME280;66135;0.000;0.000;2023-03-14T07:52:41;98935.88;;;17.74;61.49
77161;BME280;66135;0.000;0.000;2023-03-14T07:55:10;98944.00;;;17.74;61.50
77161;BME280;66135;0.000;0.000;2023-03-14T07:57:35;98953.38;;;17.71;61.29
77161;BME280;66135;0.000;0.000;2023-03-14T08:00:01;98959.84;;;17.70;61.41
77161;BME280;66135;0.000;0.000;2023-03-14T08:02:26;98958.22;;;17.69;61.15
77161;BME280;66135;0.000;0.000;2023-03-14T08:04:52;98966.53;;;17.68;61.59
77161;BME280;66135;0.000;0.000;2023-03-14T08:07:17;98982.34;;;17.71;61.26
77161;BME280;66135;0.000;0.000;2023-03-14T08:09:43;98988.38;;;17.73;61.17
77161;BME280;66135;0.000;0.000;2023-03-14T08:12:08;99002.50;;;17.75;61.28
77161;BME280;66135;0.000;0.000;2023-03-14T08:14:34;98993.81;;;17.73;61.28
77161;BME280;66135;0.000;0.000;2023-03-14T08:16:59;99010.63;;;17.75;61.34
77161;BME280;66135;0.000;0.000;2023-03-14T08:19:25;99024.41;;;17.73;61.20
77161;BME280;66135;0.000;0.000;2023-03-14T08:21:50;99041.50;;;17.74;60.99
77161;BME280;66135;0.000;0.000;2023-03-14T08:24:16;99038.56;;;17.75;61.27
77161;BME280;66135;0.000;0.000;2023-03-14T08:26:41;99050.25;;;17.76;60.88
77161;BME280;66135;0.000;0.000;2023-03-14T08:29:07;99062.94;;;17.75;61.41
77161;BME280;66135;0.000;0.000;2023-03-14T08:31:34;99075.22;;;17.78;61.16
77161;BME280;66135;0.000;0.000;2023-03-14T08:34:00;99078.16;;;17.76;61.23
77161;BME280;66135;0.000;0.000;2023-03-14T08:36:25;99090.03;;;17.75;61.48
77161;BME280;66135;0.000;0.000;2023-03-14T08:38:50;99097.94;;;17.77;61.16
77161;BME280;66135;0.000;0.000;2023-03-14T08:41:16;99116.25;;;17.75;61.07
77161;BME280;66135;0.000;0.000;2023-03-14T08:43:41;99121.91;;;17.73;61.15
77161;BME280;66135;0.000;0.000;2023-03-14T08:46:07;99128.16;;;17.74;61.36
77161;BME280;66135;0.000;0.000;2023-03-14T08:48:32;99130.03;;;17.73;61.40
77161;BME280;66135;0.000;0.000;2023-03-14T08:51:09;99153.78;;;17.71;61.35
77161;BME280;66135;0.000;0.000;2023-03-14T08:53:36;99158.16;;;17.72;61.30
77161;BME280;66135;0.000;0.000;2023-03-14T08:56:10;99156.06;;;17.68;61.32
77161;BME280;66135;0.000;0.000;2023-03-14T08:58:36;99171.28;;;17.69;61.48
77161;BME280;66135;0.000;0.000;2023-03-14T09:01:21;99184.22;;;17.67;61.21
77161;BME280;66135;0.000;0.000;2023-03-14T09:03:49;99198.38;;;17.69;61.48
77161;BME280;66135;0.000;0.000;2023-03-14T09:06:15;99194.81;;;17.68;61.24
77161;BME280;66135;0.000;0.000;2023-03-14T09:08:50;99203.38;;;17.72;61.14
77161;BME280;66135;0.000;0.000;2023-03-14T09:11:16;99209.63;;;17.72;61.07
77161;BME280;66135;0.000;0.000;2023-03-14T09:13:43;99216.69;;;17.73;61.05
77161;BME280;66135;0.000;0.000;2023-03-14T09:16:09;99227.31;;;17.75;61.61
77161;BME280;66135;0.000;0.000;2023-03-14T09:18:35;99235.25;;;17.76;61.69
77161;BME280;66135;0.000;0.000;2023-03-14T09:21:00;99235.84;;;17.78;61.94
77161;BME280;66135;0.000;0.000;2023-03-14T09:23:26;99256.28;;;17.81;62.00
77161;BME280;66135;0.000;0.000;2023-03-14T09:25:59;99261.69;;;17.81;62.48
77161;BME280;66135;0.000;0.000;2023-03-14T09:28:25;99262.31;;;17.83;62.16
77161;BME280;66135;0.000;0.000;2023-03-14T09:30:50;99265.66;;;17.85;62.65
77161;BME280;66135;0.000;0.000;2023-03-14T09:33:16;99268.34;;;17.85;62.88
77161;BME280;66135;0.000;0.000;2023-03-14T09:35:42;99272.75;;;17.79;62.77
77161;BME280;66135;0.000;0.000;2023-03-14T09:38:07;99287.13;;;17.80;62.33
77161;BME280;66135;0.000;0.000;2023-03-14T09:40:37;99299.41;;;17.76;62.31
77161;BME280;66135;0.000;0.000;2023-03-14T09:43:03;99311.91;;;17.77;62.52
77161;BME280;66135;0.000;0.000;2023-03-14T09:45:40;99326.69;;;17.74;62.45
77161;BME280;66135;0.000;0.000;2023-03-14T09:48:20;99336.06;;;17.72;62.23
77161;BME280;66135;0.000;0.000;2023-03-14T09:50:51;99342.31;;;17.72;62.32
77161;BME280;66135;0.000;0.000;2023-03-14T09:53:41;99381.47;;;17.70;61.85
77161;BME280;66135;0.000;0.000;2023-03-14T09:56:29;99382.75;;;17.67;61.98
77161;BME280;66135;0.000;0.000;2023-03-14T09:58:59;99410.63;;;17.68;61.75
77161;BME280;66135;0.000;0.000;2023-03-14T10:01:30;99420.88;;;17.66;61.93
77161;BME280;66135;0.000;0.000;2023-03-14T10:03:57;99438.34;;;17.70;62.18
77161;BME280;66135;0.000;0.000;2023-03-14T10:06:31;99466.06;;;17.72;61.68
77161;BME280;66135;0.000;0.000;2023-03-14T10:08:57;99478.75;;;17.71;61.86
77161;BME280;66135;0.000;0.000;2023-03-14T10:11:23;99482.31;;;17.72;61.85
77161;BME280;66135;0.000;0.000;2023-03-14T10:14:09;99492.13;;;17.73;62.08
77161;BME280;66135;0.000;0.000;2023-03-14T10:16:42;99506.47;;;17.73;61.73
77161;BME280;66135;0.000;0.000;2023-03-14T10:19:16;99519.00;;;17.74;61.57
77161;BME280;66135;0.000;0.000;2023-03-14T10:22:02;99535.47;;;17.73;62.19
77161;BME280;66135;0.000;0.000;2023-03-14T10:24:30;99544.19;;;17.68;62.32
77161;BME280;66135;0.000;0.000;2023-03-14T10:27:05;99545.22;;;17.67;62.15
77161;BME280;66135;0.000;0.000;2023-03-14T10:29:33;99559.78;;;17.66;61.76
77161;BME280;66135;0.000;0.000;2023-03-14T10:38:00;99593.97;;;17.67;61.43
77161;BME280;66135;0.000;0.000;2023-03-14T10:40:37;99611.88;;;17.68;61.51
77161;BME280;66135;0.000;0.000;2023-03-14T10:43:06;99617.50;;;17.67;61.48
77161;BME280;66135;0.000;0.000;2023-03-14T10:45:38;99627.72;;;17.65;61.40
77161;BME280;66135;0.000;0.000;2023-03-14T10:48:21;99637.09;;;17.62;61.41
77161;BME280;66135;0.000;0.000;2023-03-14T10:51:06;99640.59;;;17.63;61.07
77161;BME280;66135;0.000;0.000;2023-03-14T10:54:14;99661.06;;;17.65;60.99
77161;BME280;66135;0.000;0.000;2023-03-14T10:57:00;99672.53;;;17.67;61.43
77161;BME280;66135;0.000;0.000;2023-03-14T10:59:35;99684.44;;;17.73;62.14
77161;BME280;66135;0.000;0.000;2023-03-14T11:05:28;99710.47;;;17.74;62.08
77161;BME280;66135;0.000;0.000;2023-03-14T11:11:22;99732.97;;;17.74;62.26
77161;BME280;66135;0.000;0.000;2023-03-14T11:19:03;99751.09;;;17.74;62.21
77161;BME280;66135;0.000;0.000;2023-03-14T11:21:35;99769.00;;;17.75;62.53
77161;BME280;66135;0.000;0.000;2023-03-14T11:29:54;99791.09;;;17.72;62.32
77161;BME280;66135;0.000;0.000;2023-03-14T11:32:46;99801.91;;;17.72;62.41
77161;BME280;66135;0.000;0.000;2023-03-14T11:35:35;99803.78;;;17.71;62.18
77161;BME280;66135;0.000;0.000;2023-03-14T11:38:10;99812.97;;;17.70;62.33
77161;BME280;66135;0.000;0.000;2023-03-14T11:40:51;99816.50;;;17.71;62.62
77161;BME280;66135;0.000;0.000;2023-03-14T11:43:33;99830.25;;;17.69;62.41
77161;BME280;66135;0.000;0.000;2023-03-14T11:46:31;99847.31;;;17.70;62.08
77161;BME280;66135;0.000;0.000;2023-03-14T11:51:47;99885.00;;;17.65;62.35
77161;BME280;66135;0.000;0.000;2023-03-14T11:54:40;99904.78;;;17.65;62.19
77161;BME280;66135;0.000;0.000;2023-03-14T11:57:20;99911.44;;;17.63;62.31
77161;BME280;66135;0.000;0.000;2023-03-14T12:00:13;99904.16;;;17.63;62.09
77161;BME280;66135;0.000;0.000;2023-03-14T12:13:04;99922.25;;;17.63;62.28
77161;BME280;66135;0.000;0.000;2023-03-14T12:15:29;99927.22;;;17.59;62.37
77161;BME280;66135;0.000;0.000;2023-03-14T12:17:55;99943.28;;;17.61;61.91
77161;BME280;66135;0.000;0.000;2023-03-14T12:20:25;99944.31;;;17.60;61.99
77161;BME280;66135;0.000;0.000;2023-03-14T12:22:56;99955.16;;;17.60;61.87
77161;BME280;66135;0.000;0.000;2023-03-14T12:25:28;99959.72;;;17.59;61.90
77161;BME280;66135;0.000;0.000;2023-03-14T12:28:30;99963.47;;;17.58;61.73
77161;BME280;66135;0.000;0.000;2023-03-14T12:30:56;99969.91;;;17.57;61.78
77161;BME280;66135;0.000;0.000;2023-03-14T12:33:27;99968.25;;;17.56;61.64
77161;BME280;66135;0.000;0.000;2023-03-14T12:36:03;99978.41;;;17.54;61.56
77161;BME280;66135;0.000;0.000;2023-03-14T12:43:48;99971.41;;;17.60;61.36
77161;BME280;66135;0.000;0.000;2023-03-14T12:49:04;99984.94;;;17.60;61.13
77161;BME280;66135;0.000;0.000;2023-03-14T12:54:35;99987.00;;;17.58;61.31
77161;BME280;66135;0.000;0.000;2023-03-14T12:59:34;100000.53;;;17.58;61.15
77161;BME280;66135;0.000;0.000;2023-03-14T13:07:34;100008.66;;;17.58;61.39
77161;BME280;66135;0.000;0.000;2023-03-14T13:10:21;100017.84;;;17.57;61.40
77161;BME280;66135;0.000;0.000;2023-03-14T13:13:11;100023.25;;;17.57;61.53
77161;BME280;66135;0.000;0.000;2023-03-14T13:15:42;100028.66;;;17.57;61.49
77161;BME280;66135;0.000;0.000;2023-03-14T13:18:16;100029.47;;;17.57;61.30
77161;BME280;66135;0.000;0.000;2023-03-14T13:21:17;100032.84;;;17.59;61.30
77161;BME280;66135;0.000;0.000;2023-03-14T13:24:03;100041.63;;;17.61;61.35
77161;BME280;66135;0.000;0.000;2023-03-14T13:26:37;100034.53;;;17.60;61.36
77161;BME280;66135;0.000;0.000;2023-03-14T13:29:16;100053.09;;;17.63;61.28
77161;BME280;66135;0.000;0.000;2023-03-14T13:31:46;100050.22;;;17.65;61.27
77161;BME280;66135;0.000;0.000;2023-03-14T13:34:12;100063.56;;;17.66;61.33
77161;BME280;66135;0.000;0.000;2023-03-14T13:36:38;100067.13;;;17.67;61.53
77161;BME280;66135;0.000;0.000;2023-03-14T13:39:10;100069.63;;;17.68;61.46
77161;BME280;66135;0.000;0.000;2023-03-14T13:41:38;100074.66;;;17.71;61.44
77161;BME280;66135;0.000;0.000;2023-03-14T13:44:05;100092.41;;;17.74;62.12
77161;BME280;66135;0.000;0.000;2023-03-14T13:46:42;100090.53;;;17.74;61.90
77161;BME280;66135;0.000;0.000;2023-03-14T13:49:13;100089.69;;;17.74;61.86
77161;BME280;66135;0.000;0.000;2023-03-14T13:51:42;100105.75;;;17.75;62.58
77161;BME280;66135;0.000;0.000;2023-03-14T13:54:16;100119.09;;;17.77;62.45
77161;BME280;66135;0.000;0.000;2023-03-14T13:56:42;100124.34;;;17.78;61.80
77161;BME280;66135;0.000;0.000;2023-03-14T13:59:23;100123.97;;;17.81;62.68
77161;BME280;66135;0.000;0.000;2023-03-14T14:01:50;100132.31;;;17.80;62.03
77161;BME280;66135;0.000;0.000;2023-03-14T14:04:18;100134.81;;;17.81;62.78
77161;BME280;66135;0.000;0.000;2023-03-14T14:06:50;100158.16;;;17.82;62.28
77161;BME280;66135;0.000;0.000;2023-03-14T14:09:40;100166.09;;;17.84;62.82
77161;BME280;66135;0.000;0.000;2023-03-14T14:12:40;100181.53;;;17.83;62.20
77161;BME280;66135;0.000;0.000;2023-03-14T14:15:13;100183.59;;;17.81;62.28
77161;BME280;66135;0.000;0.000;2023-03-14T14:17:49;100200.66;;;17.82;62.46
77161;BME280;66135;0.000;0.000;2023-03-14T14:20:28;100201.50;;;17.82;62.58
77161;BME280;66135;0.000;0.000;2023-03-14T14:23:27;100217.75;;;17.82;62.63
77161;BME280;66135;0.000;0.000;2023-03-14T14:25:55;100227.94;;;17.80;62.32